createdAt,value
2023-09-23T00:01:07.113Z,85.60
2023-09-23T00:03:35.929Z,86.29
2023-09-23T00:06:04.288Z,85.98
2023-09-23T00:08:31.712Z,86.02
2023-09-23T00:10:59.376Z,86.03
2023-09-23T00:13:27.081Z,86.25
2023-09-23T00:15:54.693Z,86.11
2023-09-23T00:18:22.161Z,86.64
2023-09-23T00:20:50.366Z,86.35
2023-09-23T00:23:18.351Z,85.72
2023-09-23T00:25:48.553Z,85.92
2023-09-23T00:28:16.535Z,85.83
2023-09-23T00:30:47.879Z,85.94
2023-09-23T00:33:18.683Z,86.35
2023-09-23T00:35:46.627Z,86.46
2023-09-23T00:38:14.206Z,85.89
2023-09-23T00:40:41.820Z,85.85
2023-09-23T00:43:10.780Z,85.95
2023-09-23T00:45:38.555Z,86.62
2023-09-23T00:48:10.132Z,86.69
2023-09-23T00:50:38.021Z,85.98
2023-09-23T00:53:07.768Z,86.27
2023-09-23T00:55:42.605Z,85.46
2023-09-23T00:58:16.218Z,85.86
2023-09-23T01:00:46.739Z,85.22
2023-09-23T01:03:14.588Z,85.24
2023-09-23T01:05:42.150Z,85.54
2023-09-23T01:08:13.058Z,87.01
2023-09-23T01:10:41.606Z,86.87
2023-09-23T01:13:09.849Z,85.85
2023-09-23T01:15:48.155Z,85.36
2023-09-23T01:18:15.763Z,85.41
2023-09-23T01:20:44.546Z,85.22
2023-09-23T01:23:12.672Z,85.67
2023-09-23T01:25:40.804Z,86.88
2023-09-23T01:28:12.801Z,86.32
2023-09-23T01:30:42.625Z,85.61
2023-09-23T01:33:10.507Z,85.29
2023-09-23T01:35:38.735Z,86.26
2023-09-23T01:38:08.118Z,86.38
2023-09-23T01:40:38.039Z,86.80
2023-09-23T01:43:05.793Z,86.52
2023-09-23T01:45:33.905Z,86.80
2023-09-23T01:48:01.507Z,86.31
2023-09-23T01:50:29.465Z,86.03
2023-09-23T01:53:01.063Z,85.92
2023-09-23T01:55:29.822Z,86.25
2023-09-23T01:57:57.908Z,86.91
2023-09-23T02:00:30.721Z,87.62
2023-09-23T02:02:59.249Z,86.84
2023-09-23T02:05:30.948Z,86.36
2023-09-23T02:07:58.597Z,85.60
2023-09-23T02:10:28.234Z,86.44
2023-09-23T02:12:56.231Z,86.19
2023-09-23T02:15:23.985Z,86.82
2023-09-23T02:17:51.815Z,87.49
2023-09-23T02:20:21.644Z,86.72
2023-09-23T02:22:52.378Z,86.58
2023-09-23T02:25:19.910Z,86.70
2023-09-23T02:27:48.088Z,86.43
2023-09-23T02:30:16.165Z,86.25
2023-09-23T02:32:45.399Z,87.16
2023-09-23T02:35:14.653Z,87.05
2023-09-23T02:37:43.983Z,86.55
2023-09-23T02:40:15.908Z,86.33
2023-09-23T02:42:44.649Z,86.15
2023-09-23T02:45:13.963Z,86.36
2023-09-23T02:47:47.860Z,86.43
2023-09-23T02:50:16.182Z,86.97
2023-09-23T02:52:46.978Z,87.39
2023-09-23T02:55:17.169Z,87.11
2023-09-23T02:57:48.554Z,87.23
2023-09-23T03:00:18.787Z,86.80
2023-09-23T03:02:55.060Z,86.79
2023-09-23T03:05:31.361Z,88.03
2023-09-23T03:08:01.609Z,87.64
2023-09-23T03:10:35.959Z,87.51
2023-09-23T03:13:08.303Z,87.35
2023-09-23T03:15:39.573Z,87.25
2023-09-23T03:18:08.197Z,87.89
2023-09-23T03:20:38.266Z,87.94
2023-09-23T03:23:06.098Z,88.18
2023-09-23T03:25:33.428Z,88.34
2023-09-23T03:28:01.113Z,87.85
2023-09-23T03:30:29.104Z,87.35
2023-09-23T03:32:56.986Z,87.10
2023-09-23T03:35:26.578Z,87.22
2023-09-23T03:37:54.778Z,87.18
2023-09-23T03:40:26.632Z,88.58
2023-09-23T03:42:54.104Z,87.27
2023-09-23T03:45:21.542Z,87.12
2023-09-23T03:47:49.217Z,87.33
2023-09-23T03:50:17.721Z,87.20
2023-09-23T03:52:46.462Z,87.34
2023-09-23T03:55:14.159Z,87.53
2023-09-23T03:57:41.901Z,88.78
2023-09-23T04:00:19.262Z,88.45
2023-09-23T04:02:50.076Z,87.89
2023-09-23T04:05:18.235Z,87.89
2023-09-23T04:07:52.422Z,87.52
2023-09-23T04:10:25.170Z,87.36
2023-09-23T04:12:53.159Z,88.62
2023-09-23T04:15:21.623Z,87.94
2023-09-23T04:17:49.326Z,87.45
2023-09-23T04:20:16.920Z,87.71
2023-09-23T04:22:44.751Z,87.18
2023-09-23T04:25:12.524Z,87.43
2023-09-23T04:27:40.110Z,87.38
2023-09-23T04:30:13.234Z,87.29
2023-09-23T04:32:41.874Z,87.58
2023-09-23T04:35:11.063Z,87.30
2023-09-23T04:37:39.513Z,87.52
2023-09-23T04:40:11.487Z,87.56
2023-09-23T04:42:40.666Z,87.92
2023-09-23T04:45:10.884Z,87.74
2023-09-23T04:47:39.589Z,88.05
2023-09-23T04:50:10.152Z,88.03
2023-09-23T04:52:37.724Z,87.68
2023-09-23T04:55:05.711Z,87.79
2023-09-23T04:57:33.234Z,87.63
2023-09-23T05:00:00.549Z,87.59
2023-09-23T05:02:28.115Z,88.01
2023-09-23T05:04:55.736Z,88.17
2023-09-23T05:07:26.751Z,87.38
2023-09-23T05:09:57.313Z,87.00
2023-09-23T05:12:25.774Z,87.60
2023-09-23T05:14:54.438Z,87.23
2023-09-23T05:17:23.454Z,86.82
2023-09-23T05:19:51.069Z,87.51
2023-09-23T05:22:18.542Z,87.54
2023-09-23T05:24:49.270Z,87.72
2023-09-23T05:27:16.871Z,87.64
2023-09-23T05:29:46.497Z,87.66
2023-09-23T05:32:13.945Z,87.21
2023-09-23T05:34:41.461Z,87.66
2023-09-23T05:37:14.280Z,88.06
2023-09-23T05:39:47.515Z,87.86
2023-09-23T05:42:17.383Z,87.69
2023-09-23T05:44:45.716Z,87.58
2023-09-23T05:47:13.342Z,87.54
2023-09-23T05:49:40.981Z,87.08
2023-09-23T05:52:08.430Z,87.24
2023-09-23T05:54:35.949Z,87.97
2023-09-23T05:57:03.607Z,87.80
2023-09-23T05:59:32.413Z,87.73
2023-09-23T06:01:59.917Z,87.71
2023-09-23T06:04:27.318Z,87.92
2023-09-23T06:06:56.446Z,87.91
2023-09-23T06:09:25.384Z,88.28
2023-09-23T06:11:52.942Z,89.26
2023-09-23T06:14:20.521Z,88.33
2023-09-23T06:16:49.393Z,88.31
2023-09-23T06:19:17.323Z,87.70
2023-09-23T06:21:44.744Z,88.00
2023-09-23T06:24:12.427Z,87.53
2023-09-23T06:26:40.487Z,88.03
2023-09-23T06:29:08.067Z,88.59
2023-09-23T06:31:35.533Z,88.27
2023-09-23T06:34:03.044Z,88.14
2023-09-23T06:36:30.412Z,87.87
2023-09-23T06:38:57.983Z,88.06
2023-09-23T06:41:25.579Z,87.28
2023-09-23T06:43:53.863Z,88.48
2023-09-23T06:46:21.697Z,88.15
2023-09-23T06:48:49.304Z,87.05
2023-09-23T06:51:16.910Z,86.69
2023-09-23T06:53:46.790Z,87.24
2023-09-23T06:56:14.547Z,86.57
2023-09-23T06:58:42.008Z,86.40
2023-09-23T07:01:09.394Z,86.56
2023-09-23T07:03:36.953Z,86.88
2023-09-23T07:06:04.449Z,86.66
2023-09-23T07:08:31.898Z,86.38
2023-09-23T07:10:59.357Z,86.25
2023-09-23T07:13:26.880Z,88.58
2023-09-23T07:15:54.305Z,87.46
2023-09-23T07:18:21.782Z,86.86
2023-09-23T07:20:49.217Z,86.40
2023-09-23T07:23:16.682Z,85.90
2023-09-23T07:25:44.400Z,85.89
2023-09-23T07:28:11.864Z,86.69
2023-09-23T07:30:39.831Z,86.31
2023-09-23T07:33:07.336Z,86.34
2023-09-23T07:35:35.433Z,86.46
2023-09-23T07:38:04.588Z,86.34
2023-09-23T07:40:32.829Z,86.81
2023-09-23T07:43:00.315Z,86.07
2023-09-23T07:45:27.834Z,85.47
2023-09-23T07:47:55.279Z,85.16
2023-09-23T07:50:23.566Z,84.99
2023-09-23T07:52:51.065Z,84.81
2023-09-23T07:55:19.331Z,85.30
2023-09-23T07:57:46.954Z,85.00
2023-09-23T08:00:15.445Z,84.97
2023-09-23T08:02:45.998Z,85.01
2023-09-23T08:05:14.227Z,86.22
2023-09-23T08:07:44.754Z,85.09
2023-09-23T08:10:12.191Z,84.16
2023-09-23T08:12:39.639Z,82.52
2023-09-23T08:17:51.025Z,80.32
2023-09-23T08:20:21.872Z,79.56
2023-09-23T08:22:50.398Z,80.06
2023-09-23T08:25:20.082Z,80.50
2023-09-23T08:27:48.252Z,80.76
2023-09-23T08:30:18.701Z,80.79
2023-09-23T08:32:47.434Z,80.95
2023-09-23T08:35:15.025Z,81.11
2023-09-23T08:37:42.660Z,81.09
2023-09-23T08:40:12.698Z,80.95
2023-09-23T08:42:41.047Z,81.76
2023-09-23T08:45:11.971Z,82.64
2023-09-23T08:47:40.066Z,81.88
2023-09-23T08:50:10.346Z,81.81
2023-09-23T08:52:38.543Z,81.25
2023-09-23T08:55:09.007Z,81.51
2023-09-23T08:57:36.649Z,81.35
2023-09-23T09:00:09.749Z,81.50
2023-09-23T09:02:37.378Z,81.21
2023-09-23T09:05:05.190Z,81.33
2023-09-23T09:07:37.588Z,80.66
2023-09-23T09:10:06.422Z,79.98
2023-09-23T09:12:34.948Z,79.77
2023-09-23T09:15:09.672Z,79.65
2023-09-23T09:17:37.416Z,79.74
2023-09-23T09:20:10.874Z,79.26
2023-09-23T09:22:40.344Z,79.52
2023-09-23T09:25:16.543Z,79.39
2023-09-23T09:27:45.828Z,79.23
2023-09-23T09:30:14.643Z,78.84
2023-09-23T09:32:44.302Z,79.30
2023-09-23T09:35:15.665Z,79.96
2023-09-23T09:37:45.553Z,79.88
2023-09-23T09:40:19.417Z,79.30
2023-09-23T09:42:56.330Z,79.15
2023-09-23T09:45:25.362Z,79.25
2023-09-23T09:47:55.069Z,79.46
2023-09-23T09:50:27.468Z,78.20
2023-09-23T09:52:55.305Z,78.67
2023-09-23T09:55:26.893Z,79.70
2023-09-23T09:57:56.843Z,79.01
2023-09-23T10:00:32.679Z,79.19
2023-09-23T10:03:07.813Z,78.64
2023-09-23T10:05:38.704Z,78.02
2023-09-23T10:08:17.401Z,77.44
2023-09-23T10:10:48.941Z,77.21
2023-09-23T10:13:21.478Z,76.75
2023-09-23T10:15:49.225Z,76.50
2023-09-23T10:18:19.623Z,77.66
2023-09-23T10:20:53.326Z,86.67
2023-09-23T10:23:22.814Z,91.02
2023-09-23T10:25:52.950Z,85.11
2023-09-23T10:28:23.324Z,86.55
2023-09-23T10:30:59.961Z,82.98
2023-09-23T10:33:28.022Z,83.65
2023-09-23T10:36:12.754Z,82.09
2023-09-23T10:38:41.642Z,77.43
2023-09-23T10:41:09.411Z,78.24
2023-09-23T10:43:37.351Z,74.93
2023-09-23T10:46:04.777Z,73.74
2023-09-23T10:48:33.392Z,76.26
2023-09-23T10:51:02.506Z,76.25
2023-09-23T10:53:30.988Z,76.43
2023-09-23T10:56:01.516Z,74.90
2023-09-23T10:58:29.833Z,73.73
2023-09-23T11:00:59.017Z,76.74
2023-09-23T11:03:26.731Z,73.40
2023-09-23T11:05:55.685Z,69.87
2023-09-23T11:08:24.183Z,68.34
2023-09-23T11:10:52.228Z,68.67
2023-09-23T11:13:19.962Z,67.91
2023-09-23T11:15:47.544Z,66.91
2023-09-23T11:18:17.190Z,68.46
2023-09-23T11:20:47.038Z,68.04
2023-09-23T11:23:15.871Z,67.75
2023-09-23T11:25:46.687Z,67.60
2023-09-23T11:28:23.613Z,67.49
2023-09-23T11:30:52.786Z,67.74
2023-09-23T11:33:20.859Z,64.07
2023-09-23T11:35:48.714Z,62.94
2023-09-23T11:38:16.488Z,64.60
2023-09-23T11:40:44.813Z,63.21
2023-09-23T11:43:12.335Z,63.79
2023-09-23T11:45:43.745Z,62.90
2023-09-23T11:48:14.508Z,63.13
2023-09-23T11:50:42.489Z,63.47
2023-09-23T11:53:10.668Z,63.34
2023-09-23T11:55:38.206Z,64.49
2023-09-23T11:58:05.873Z,62.85
2023-09-23T12:00:36.168Z,62.16
2023-09-23T12:03:03.658Z,61.39
2023-09-23T12:05:31.926Z,62.35
2023-09-23T12:08:01.517Z,60.88
2023-09-23T12:10:31.407Z,61.44
2023-09-23T12:13:05.348Z,60.95
2023-09-23T12:15:35.800Z,60.92
2023-09-23T12:18:03.383Z,61.30
2023-09-23T12:20:31.156Z,62.22
2023-09-23T12:23:00.549Z,60.51
2023-09-23T12:25:28.084Z,59.82
2023-09-23T12:27:55.495Z,59.79
2023-09-23T12:30:23.032Z,59.76
2023-09-23T12:32:50.490Z,59.57
2023-09-23T12:35:18.133Z,60.61
2023-09-23T12:37:45.846Z,59.78
2023-09-23T12:40:13.363Z,57.86
2023-09-23T12:42:40.798Z,57.15
2023-09-23T12:45:09.774Z,56.97
2023-09-23T12:47:55.207Z,55.81
2023-09-23T12:50:26.058Z,54.85
2023-09-23T12:52:55.098Z,55.50
2023-09-23T12:55:22.664Z,55.74
2023-09-23T12:57:50.295Z,53.07
2023-09-23T13:00:18.336Z,52.94
2023-09-23T13:02:46.119Z,53.28
2023-09-23T13:05:14.335Z,53.16
2023-09-23T13:07:41.761Z,51.79
2023-09-23T13:10:14.541Z,52.27
2023-09-23T13:12:43.050Z,53.00
2023-09-23T13:15:10.676Z,53.18
2023-09-23T13:17:38.740Z,54.38
2023-09-23T13:20:07.560Z,53.18
2023-09-23T13:22:35.137Z,52.49
2023-09-23T13:25:02.721Z,52.82
2023-09-23T13:27:30.364Z,52.38
2023-09-23T13:29:57.916Z,51.39
2023-09-23T13:32:25.373Z,51.89
2023-09-23T13:34:52.817Z,51.04
2023-09-23T13:37:20.323Z,53.15
2023-09-23T13:39:47.840Z,50.99
2023-09-23T13:42:15.348Z,51.24
2023-09-23T13:44:47.407Z,50.70
2023-09-23T13:47:14.898Z,52.11
2023-09-23T13:49:42.515Z,50.82
2023-09-23T13:52:10.134Z,50.31
2023-09-23T13:54:37.544Z,50.77
2023-09-23T13:57:06.066Z,50.76
2023-09-23T13:59:33.803Z,51.56
2023-09-23T14:02:01.460Z,53.25
2023-09-23T14:04:28.966Z,51.25
2023-09-23T14:06:56.673Z,50.30
2023-09-23T14:09:24.629Z,51.42
2023-09-23T14:11:54.029Z,52.59
2023-09-23T14:14:21.660Z,51.57
2023-09-23T14:16:49.677Z,52.14
2023-09-23T14:19:17.667Z,53.01
2023-09-23T14:21:45.205Z,53.82
2023-09-23T14:24:13.086Z,53.31
2023-09-23T14:26:40.672Z,54.67
2023-09-23T14:29:08.158Z,52.44
2023-09-23T14:31:35.641Z,53.09
2023-09-23T14:34:05.109Z,54.93
2023-09-23T14:36:34.028Z,54.78
2023-09-23T14:39:05.273Z,56.48
2023-09-23T14:41:35.402Z,55.03
2023-09-23T14:44:04.439Z,52.69
2023-09-23T14:46:32.357Z,52.22
2023-09-23T14:49:00.079Z,52.06
2023-09-23T14:51:30.618Z,57.43
2023-09-23T14:53:58.106Z,56.22
2023-09-23T14:56:27.586Z,53.21
2023-09-23T14:58:55.131Z,52.68
2023-09-23T15:01:22.700Z,53.36
2023-09-23T15:03:50.387Z,53.83
2023-09-23T15:06:18.685Z,54.30
2023-09-23T15:08:59.275Z,52.90
2023-09-23T15:11:29.297Z,53.90
2023-09-23T15:13:57.420Z,55.44
2023-09-23T15:16:25.686Z,54.24
2023-09-23T15:18:53.701Z,54.96
2023-09-23T15:21:21.401Z,54.85
2023-09-23T15:23:49.468Z,55.33
2023-09-23T15:26:17.844Z,57.06
2023-09-23T15:28:46.054Z,55.75
2023-09-23T15:31:13.826Z,55.83
2023-09-23T15:33:41.483Z,58.98
2023-09-23T15:36:13.773Z,57.19
2023-09-23T15:38:41.335Z,58.95
2023-09-23T15:41:09.396Z,59.20
2023-09-23T15:43:37.319Z,57.35
2023-09-23T15:46:05.523Z,56.04
2023-09-23T15:48:33.023Z,57.31
2023-09-23T15:51:13.599Z,56.51
2023-09-23T15:53:41.108Z,55.79
2023-09-23T15:56:09.100Z,56.18
2023-09-23T15:58:40.106Z,56.07
2023-09-23T16:01:08.623Z,56.30
2023-09-23T16:03:36.625Z,53.96
2023-09-23T16:06:04.911Z,52.51
2023-09-23T16:08:32.544Z,51.74
2023-09-23T16:11:00.927Z,51.13
2023-09-23T16:13:29.643Z,52.43
2023-09-23T16:15:57.269Z,54.27
2023-09-23T16:18:26.294Z,54.70
2023-09-23T16:20:53.772Z,54.08
2023-09-23T16:23:21.314Z,56.00
2023-09-23T16:25:48.852Z,57.62
2023-09-23T16:28:16.484Z,58.94
2023-09-23T16:30:44.133Z,57.02
2023-09-23T16:33:14.035Z,57.27
2023-09-23T16:35:42.167Z,57.72
2023-09-23T16:38:09.861Z,56.62
2023-09-23T16:40:37.845Z,57.08
2023-09-23T16:43:07.108Z,56.74
2023-09-23T16:45:36.081Z,58.51
2023-09-23T16:48:04.575Z,57.95
2023-09-23T16:50:32.211Z,57.77
2023-09-23T16:53:00.874Z,58.28
2023-09-23T16:55:29.427Z,57.79
2023-09-23T16:57:58.343Z,58.24
2023-09-23T17:00:26.810Z,57.87
2023-09-23T17:02:55.302Z,60.13
2023-09-23T17:05:22.970Z,60.32
2023-09-23T17:07:51.632Z,59.66
2023-09-23T17:10:19.397Z,60.19
2023-09-23T17:12:46.831Z,59.90
2023-09-23T17:15:14.373Z,61.38
2023-09-23T17:17:41.994Z,60.87
2023-09-23T17:20:11.356Z,61.77
2023-09-23T17:22:38.903Z,61.17
2023-09-23T17:25:09.606Z,59.87
2023-09-23T17:27:37.145Z,59.36
2023-09-23T17:30:06.928Z,60.49
2023-09-23T17:32:35.096Z,61.85
2023-09-23T17:35:02.860Z,60.91
2023-09-23T17:37:30.264Z,61.22
2023-09-23T17:39:57.703Z,61.30
2023-09-23T17:42:26.975Z,61.16
2023-09-23T17:44:54.538Z,62.71
2023-09-23T17:47:22.074Z,62.16
2023-09-23T17:49:49.593Z,62.36
2023-09-23T17:52:17.241Z,62.55
2023-09-23T17:54:44.975Z,62.08
2023-09-23T17:57:12.436Z,62.58
2023-09-23T17:59:40.207Z,62.93
2023-09-23T18:02:08.285Z,63.18
2023-09-23T18:04:36.089Z,63.04
2023-09-23T18:07:03.697Z,62.80
2023-09-23T18:09:31.187Z,62.61
2023-09-23T18:11:58.736Z,63.12
2023-09-23T18:14:26.435Z,62.27
2023-09-23T18:16:54.562Z,62.73
2023-09-23T18:19:22.095Z,63.18
2023-09-23T18:21:49.624Z,63.25
2023-09-23T18:24:17.188Z,64.23
2023-09-23T18:26:44.828Z,62.13
2023-09-23T18:29:13.257Z,62.02
2023-09-23T18:31:42.754Z,63.30
2023-09-23T18:34:10.338Z,62.76
2023-09-23T18:36:37.874Z,62.29
2023-09-23T18:39:05.600Z,61.31
2023-09-23T18:41:33.264Z,61.58
2023-09-23T18:44:00.831Z,62.67
2023-09-23T18:46:28.363Z,62.18
2023-09-23T18:48:56.299Z,60.65
2023-09-23T18:51:24.020Z,61.54
2023-09-23T18:53:52.984Z,61.06
2023-09-23T18:56:20.578Z,61.28
2023-09-23T18:58:49.629Z,61.84
2023-09-23T19:01:20.386Z,64.40
2023-09-23T19:03:49.082Z,64.08
2023-09-23T19:06:18.617Z,63.55
2023-09-23T19:08:46.684Z,62.59
2023-09-23T19:11:27.014Z,63.00
2023-09-23T19:13:55.513Z,63.20
2023-09-23T19:16:27.224Z,64.88
2023-09-23T19:18:55.885Z,64.37
2023-09-23T19:21:25.273Z,64.09
2023-09-23T19:23:52.866Z,64.64
2023-09-23T19:26:22.223Z,64.13
2023-09-23T19:28:52.192Z,65.64
2023-09-23T19:31:23.841Z,65.31
2023-09-23T19:33:55.132Z,67.11
2023-09-23T19:36:24.086Z,65.34
2023-09-23T19:38:51.665Z,65.68
2023-09-23T19:41:19.233Z,65.75
2023-09-23T19:43:49.174Z,66.22
2023-09-23T19:46:21.904Z,66.55
2023-09-23T19:48:51.083Z,66.70
2023-09-23T19:51:25.418Z,66.36
2023-09-23T19:53:53.821Z,65.46
2023-09-23T19:56:23.145Z,65.60
2023-09-23T19:58:51.895Z,66.33
2023-09-23T20:01:21.208Z,66.10
2023-09-23T20:03:52.628Z,65.85
2023-09-23T20:06:20.283Z,66.87
2023-09-23T20:08:49.159Z,66.68
2023-09-23T20:11:22.275Z,66.97
2023-09-23T20:13:54.166Z,66.58
2023-09-23T20:16:32.332Z,66.71
2023-09-23T20:19:04.613Z,66.77
2023-09-23T20:21:32.517Z,67.84
2023-09-23T20:24:01.152Z,68.78
2023-09-23T20:26:28.605Z,69.01
2023-09-23T20:29:03.293Z,68.41
2023-09-23T20:31:31.634Z,68.95
2023-09-23T20:33:59.171Z,69.02
2023-09-23T20:36:27.922Z,68.57
2023-09-23T20:39:00.725Z,68.17
2023-09-23T20:41:30.111Z,68.43
2023-09-23T20:44:04.956Z,69.29
2023-09-23T20:46:34.328Z,68.89
2023-09-23T20:49:02.826Z,68.56
2023-09-23T20:51:33.323Z,68.89
2023-09-23T20:54:02.773Z,70.63
2023-09-23T20:56:30.606Z,70.24
2023-09-23T20:58:59.229Z,69.62
2023-09-23T21:01:28.091Z,69.12
2023-09-23T21:03:55.877Z,69.37
2023-09-23T21:06:25.040Z,71.14
2023-09-23T21:08:53.225Z,70.45
2023-09-23T21:11:22.415Z,70.01
2023-09-23T21:13:50.072Z,70.85
2023-09-23T21:16:18.317Z,71.13
2023-09-23T21:18:46.116Z,71.19
2023-09-23T21:21:13.866Z,71.44
2023-09-23T21:23:41.450Z,71.93
2023-09-23T21:26:12.779Z,71.09
2023-09-23T21:28:40.546Z,70.28
2023-09-23T21:31:08.113Z,70.99
2023-09-23T21:33:35.646Z,71.44
2023-09-23T21:36:05.410Z,71.53
2023-09-23T21:38:32.983Z,71.26
2023-09-23T21:41:00.673Z,71.68
2023-09-23T21:43:28.158Z,71.81
2023-09-23T21:45:56.737Z,71.57
2023-09-23T21:48:26.033Z,72.86
2023-09-23T21:51:03.112Z,71.69
2023-09-23T21:53:31.012Z,71.18
2023-09-23T21:55:59.872Z,71.76
2023-09-23T21:58:27.499Z,71.40
2023-09-23T22:01:04.409Z,71.67
2023-09-23T22:03:32.985Z,72.41
2023-09-23T22:06:00.915Z,72.23
2023-09-23T22:08:29.125Z,71.30
2023-09-23T22:10:56.623Z,72.19
2023-09-23T22:13:24.831Z,71.94
2023-09-23T22:15:52.327Z,72.17
2023-09-23T22:18:21.768Z,72.60
2023-09-23T22:20:51.601Z,73.02
2023-09-23T22:23:19.184Z,72.36
2023-09-23T22:25:47.190Z,72.83
2023-09-23T22:28:14.707Z,72.70
2023-09-23T22:30:42.152Z,73.13
2023-09-23T22:33:10.018Z,73.39
2023-09-23T22:35:38.325Z,73.50
2023-09-23T22:38:06.492Z,73.63
2023-09-23T22:40:33.978Z,73.44
2023-09-23T22:43:01.606Z,73.26
2023-09-23T22:45:38.765Z,73.05
2023-09-23T22:48:09.103Z,74.19
2023-09-23T22:50:36.929Z,74.66
2023-09-23T22:53:06.559Z,74.04
2023-09-23T22:55:34.350Z,73.81
2023-09-23T22:58:01.865Z,72.95
2023-09-23T23:00:29.704Z,73.39
2023-09-23T23:02:58.631Z,74.09
2023-09-23T23:05:27.695Z,74.21
2023-09-23T23:07:57.673Z,73.78
2023-09-23T23:10:25.264Z,73.22
2023-09-23T23:12:52.755Z,73.62
2023-09-23T23:15:28.631Z,73.41
2023-09-23T23:17:57.514Z,73.52
2023-09-23T23:20:25.649Z,74.72
2023-09-23T23:22:54.809Z,73.72
2023-09-23T23:25:23.359Z,74.00
2023-09-23T23:27:51.226Z,74.03
2023-09-23T23:30:20.047Z,73.42
2023-09-23T23:32:48.448Z,73.57
2023-09-23T23:35:24.062Z,74.23
2023-09-23T23:37:52.789Z,74.80
2023-09-23T23:40:24.634Z,74.70
2023-09-23T23:42:52.350Z,75.01
2023-09-23T23:45:21.270Z,75.28
2023-09-23T23:47:53.564Z,75.34
2023-09-23T23:50:22.023Z,76.34
2023-09-23T23:52:50.551Z,77.20
2023-09-23T23:55:18.160Z,75.68
2023-09-23T23:57:46.812Z,75.99
